createdAt,value
2022-08-17T00:00:44.136Z,25.51
2022-08-17T00:03:19.865Z,25.46
2022-08-17T00:06:04.903Z,25.42
2022-08-17T00:08:38.425Z,25.32
2022-08-17T00:11:35.286Z,25.32
2022-08-17T00:14:15.417Z,25.27
2022-08-17T00:16:57.094Z,25.29
2022-08-17T00:19:27.240Z,25.27
2022-08-17T00:22:34.131Z,25.26
2022-08-17T00:24:48.702Z,25.21
2022-08-17T00:27:17.190Z,25.24
2022-08-17T00:29:45.953Z,25.21
2022-08-17T00:33:12.681Z,25.12
2022-08-17T00:35:14.446Z,25.18
2022-08-17T00:37:45.670Z,25.13
2022-08-17T00:40:15.614Z,25.12
2022-08-17T00:42:47.020Z,25.11
2022-08-17T00:45:16.835Z,24.79
2022-08-17T00:47:44.741Z,24.87
2022-08-17T00:50:18.995Z,24.90
2022-08-17T00:52:57.500Z,24.88
2022-08-17T00:55:26.494Z,24.80
2022-08-17T00:58:00.095Z,24.79
2022-08-17T01:00:37.657Z,24.75
2022-08-17T01:03:27.530Z,24.67
2022-08-17T01:06:02.667Z,24.62
2022-08-17T01:08:33.081Z,24.73
2022-08-17T01:11:03.174Z,24.65
2022-08-17T01:13:43.829Z,24.80
2022-08-17T01:16:31.574Z,24.80
2022-08-17T01:19:26.242Z,24.76
2022-08-17T01:22:01.737Z,24.77
2022-08-17T01:24:30.624Z,24.70
2022-08-17T01:27:02.748Z,24.71
2022-08-17T01:29:41.759Z,24.70
2022-08-17T01:32:11.139Z,24.72
2022-08-17T01:34:43.322Z,24.68
2022-08-17T01:37:28.122Z,24.66
2022-08-17T01:40:18.385Z,24.68
2022-08-17T01:42:56.840Z,24.62
2022-08-17T01:45:30.570Z,24.56
2022-08-17T01:47:58.743Z,24.57
2022-08-17T01:50:34.595Z,24.50
2022-08-17T01:53:15.323Z,24.54
2022-08-17T01:55:58.358Z,24.52
2022-08-17T01:58:27.780Z,24.44
2022-08-17T02:01:00.566Z,24.41
2022-08-17T02:03:31.481Z,24.40
2022-08-17T02:05:59.946Z,24.34
2022-08-17T02:08:38.103Z,24.32
2022-08-17T02:11:14.700Z,24.31
2022-08-17T02:13:45.196Z,24.25
2022-08-17T02:16:13.844Z,24.24
2022-08-17T02:18:42.163Z,24.23
2022-08-17T02:21:10.666Z,24.22
2022-08-17T02:23:43.354Z,24.19
2022-08-17T02:26:24.095Z,24.14
2022-08-17T02:28:55.624Z,24.10
2022-08-17T02:31:23.485Z,24.10
2022-08-17T02:34:00.261Z,24.08
2022-08-17T02:36:34.744Z,24.05
2022-08-17T02:39:07.084Z,24.06
2022-08-17T02:41:36.511Z,24.07
2022-08-17T02:44:06.018Z,24.07
2022-08-17T02:46:33.977Z,24.01
2022-08-17T02:49:01.970Z,24.02
2022-08-17T02:51:29.937Z,23.97
2022-08-17T02:54:38.941Z,23.97
2022-08-17T02:56:46.662Z,23.94
2022-08-17T02:59:14.579Z,23.97
2022-08-17T03:01:42.855Z,24.01
2022-08-17T03:04:11.055Z,24.05
2022-08-17T03:06:39.606Z,24.11
2022-08-17T03:09:09.476Z,24.12
2022-08-17T03:11:37.402Z,24.18
2022-08-17T03:14:05.339Z,24.16
2022-08-17T03:16:33.532Z,24.19
2022-08-17T03:19:02.625Z,24.24
2022-08-17T03:21:30.527Z,24.28
2022-08-17T03:23:58.442Z,24.27
2022-08-17T03:26:29.647Z,24.28
2022-08-17T03:28:57.922Z,24.33
2022-08-17T03:31:25.916Z,24.36
2022-08-17T03:33:53.912Z,24.36
2022-08-17T03:36:22.028Z,24.39
2022-08-17T03:38:50.410Z,24.38
2022-08-17T03:41:19.071Z,24.36
2022-08-17T03:43:47.945Z,24.42
2022-08-17T03:46:35.693Z,24.44
2022-08-17T03:49:25.473Z,24.44
2022-08-17T03:52:14.707Z,24.42
2022-08-17T03:55:03.080Z,24.39
2022-08-17T03:57:32.652Z,24.33
2022-08-17T04:00:00.810Z,24.39
2022-08-17T04:02:34.080Z,24.41
2022-08-17T04:05:02.731Z,24.43
2022-08-17T04:07:32.400Z,24.40
2022-08-17T04:10:00.867Z,24.47
2022-08-17T04:12:42.346Z,24.51
2022-08-17T04:15:12.978Z,24.25
2022-08-17T04:17:41.184Z,24.41
2022-08-17T04:20:11.382Z,24.44
2022-08-17T04:22:40.605Z,24.55
2022-08-17T04:25:17.056Z,24.61
2022-08-17T04:27:45.205Z,24.62
2022-08-17T04:30:14.203Z,24.59
2022-08-17T04:33:04.895Z,24.67
2022-08-17T04:35:53.980Z,24.65
2022-08-17T04:38:26.001Z,24.62
2022-08-17T04:41:14.351Z,24.66
2022-08-17T04:43:46.805Z,24.69
2022-08-17T04:46:22.805Z,24.71
2022-08-17T04:48:55.901Z,24.71
2022-08-17T04:51:56.880Z,24.78
2022-08-17T04:54:29.738Z,24.77
2022-08-17T04:56:58.146Z,24.73
2022-08-17T04:59:26.120Z,24.85
2022-08-17T05:01:54.949Z,24.87
2022-08-17T05:04:34.299Z,24.92
2022-08-17T05:07:04.609Z,24.93
2022-08-17T05:09:32.941Z,24.95
2022-08-17T05:12:02.622Z,24.94
2022-08-17T05:14:32.852Z,25.05
2022-08-17T05:17:07.145Z,25.08
2022-08-17T05:19:39.687Z,25.07
2022-08-17T05:22:08.156Z,25.17
2022-08-17T05:24:40.807Z,25.23
2022-08-17T05:27:14.298Z,25.26
2022-08-17T05:29:47.179Z,25.34
2022-08-17T05:32:37.420Z,25.43
2022-08-17T05:35:03.732Z,25.53
2022-08-17T05:37:32.381Z,25.65
2022-08-17T05:40:00.414Z,25.72
2022-08-17T05:42:28.672Z,25.84
2022-08-17T05:44:58.848Z,25.90
2022-08-17T05:47:28.366Z,25.94
2022-08-17T05:49:57.157Z,26.01
2022-08-17T05:53:00.379Z,26.01
2022-08-17T05:55:51.656Z,26.04
2022-08-17T05:59:08.743Z,26.04
2022-08-17T06:01:58.050Z,26.08
2022-08-17T06:04:41.335Z,26.12
2022-08-17T06:07:27.643Z,26.24
2022-08-17T06:10:23.213Z,26.34
2022-08-17T06:13:28.021Z,26.46
2022-08-17T06:16:33.575Z,26.55
2022-08-17T06:19:17.500Z,26.64
2022-08-17T06:21:50.868Z,26.72
2022-08-17T06:24:34.271Z,26.87
2022-08-17T06:27:11.571Z,26.95
2022-08-17T06:30:09.652Z,27.05
2022-08-17T06:32:42.804Z,27.08
2022-08-17T06:35:16.114Z,27.15
2022-08-17T06:38:05.620Z,27.19
2022-08-17T06:41:43.577Z,27.17
2022-08-17T06:45:02.977Z,27.17
2022-08-17T06:47:51.522Z,27.23
2022-08-17T06:50:47.255Z,27.23
2022-08-17T06:53:22.251Z,27.24
2022-08-17T06:56:14.184Z,27.25
2022-08-17T06:58:44.882Z,27.20
2022-08-17T07:01:19.395Z,27.23
2022-08-17T07:03:55.002Z,27.26
2022-08-17T07:06:29.790Z,27.20
2022-08-17T07:09:18.797Z,27.25
2022-08-17T07:11:56.206Z,27.22
2022-08-17T07:14:48.250Z,27.29
2022-08-17T07:17:18.964Z,27.24
2022-08-17T07:19:52.858Z,27.30
2022-08-17T07:22:25.952Z,27.36
2022-08-17T07:25:09.510Z,27.39
2022-08-17T07:27:41.948Z,27.42
2022-08-17T07:30:18.578Z,27.49
2022-08-17T07:33:13.409Z,27.48
2022-08-17T07:35:44.053Z,27.54
2022-08-17T07:38:25.147Z,27.46
2022-08-17T07:40:58.004Z,27.61
2022-08-17T07:43:29.401Z,27.71
2022-08-17T07:46:48.400Z,27.83
2022-08-17T07:49:31.876Z,27.87
2022-08-17T07:52:50.484Z,28.03
2022-08-17T07:55:35.001Z,28.17
2022-08-17T07:58:03.894Z,28.26
2022-08-17T08:00:33.650Z,28.38
2022-08-17T08:03:20.735Z,28.48
2022-08-17T08:06:01.557Z,28.50
2022-08-17T08:08:43.884Z,28.54
2022-08-17T08:11:27.955Z,28.46
2022-08-17T08:13:58.715Z,28.52
2022-08-17T08:16:31.765Z,28.56
2022-08-17T08:19:02.899Z,28.54
2022-08-17T08:21:52.196Z,28.57
2022-08-17T08:25:08.450Z,28.62
2022-08-17T08:28:09.855Z,28.59
2022-08-17T08:30:47.129Z,28.58
2022-08-17T08:33:49.750Z,28.58
2022-08-17T08:36:56.929Z,28.59
2022-08-17T08:39:58.677Z,28.62
2022-08-17T08:42:48.154Z,28.66
2022-08-17T08:45:45.277Z,28.69
2022-08-17T08:48:45.972Z,28.74
2022-08-17T08:51:47.926Z,28.79
2022-08-17T08:54:57.062Z,28.79
2022-08-17T08:58:08.625Z,28.79
2022-08-17T09:01:01.041Z,28.74
2022-08-17T09:05:12.735Z,28.69
2022-08-17T09:07:43.718Z,28.68
2022-08-17T09:10:11.923Z,28.70
2022-08-17T09:12:54.501Z,28.76
2022-08-17T09:15:31.469Z,28.74
2022-08-17T09:19:01.747Z,28.80
2022-08-17T09:21:33.943Z,28.81
2022-08-17T09:24:33.200Z,28.87
2022-08-17T09:27:30.625Z,28.96
2022-08-17T09:30:09.420Z,29.05
2022-08-17T09:32:55.207Z,29.09
2022-08-17T09:36:05.741Z,29.29
2022-08-17T09:39:42.285Z,29.37
2022-08-17T09:43:05.532Z,29.49
2022-08-17T09:45:42.615Z,29.55
2022-08-17T09:48:38.918Z,29.66
2022-08-17T09:51:26.408Z,29.62
2022-08-17T09:53:54.506Z,29.68
2022-08-17T09:56:27.897Z,29.70
2022-08-17T09:59:22.416Z,29.66
2022-08-17T10:02:18.889Z,29.53
2022-08-17T10:05:37.475Z,29.31
2022-08-17T10:08:37.398Z,29.23
2022-08-17T10:12:11.461Z,28.99
2022-08-17T10:15:19.538Z,28.92
2022-08-17T10:17:54.013Z,28.79
2022-08-17T10:21:21.548Z,28.74
2022-08-17T10:24:30.412Z,28.63
2022-08-17T10:27:03.692Z,28.54
2022-08-17T10:29:48.974Z,28.61
2022-08-17T10:32:45.610Z,28.61
2022-08-17T10:35:30.454Z,28.63
2022-08-17T10:38:25.484Z,28.66
2022-08-17T10:41:00.454Z,28.69
2022-08-17T10:44:38.631Z,28.72
2022-08-17T10:47:09.200Z,28.81
2022-08-17T10:49:47.618Z,28.96
2022-08-17T10:52:44.604Z,29.17
2022-08-17T10:55:18.872Z,29.31
2022-08-17T10:57:50.447Z,29.44
2022-08-17T11:00:25.604Z,29.65
2022-08-17T11:02:57.650Z,29.80
2022-08-17T11:05:59.003Z,29.98
2022-08-17T11:08:59.454Z,30.06
2022-08-17T11:11:51.597Z,30.20
2022-08-17T11:14:44.268Z,30.31
2022-08-17T11:17:58.211Z,30.39
2022-08-17T11:21:09.494Z,30.51
2022-08-17T11:24:20.732Z,30.57
2022-08-17T11:27:07.842Z,30.71
2022-08-17T11:30:19.566Z,30.75
2022-08-17T11:32:54.404Z,30.72
2022-08-17T11:35:22.939Z,30.79
2022-08-17T11:38:31.248Z,30.84
2022-08-17T11:41:41.197Z,30.85
2022-08-17T11:45:09.307Z,30.87
2022-08-17T11:48:27.933Z,30.88
2022-08-17T11:51:47.549Z,30.97
2022-08-17T11:54:32.877Z,31.04
2022-08-17T11:57:30.488Z,31.16
2022-08-17T12:00:11.794Z,31.22
2022-08-17T12:02:48.317Z,31.11
2022-08-17T12:05:27.166Z,31.28
2022-08-17T12:08:21.598Z,31.44
2022-08-17T12:11:11.158Z,31.51
2022-08-17T12:13:48.449Z,31.57
2022-08-17T12:16:19.535Z,31.62
2022-08-17T12:19:02.268Z,31.72
2022-08-17T12:21:58.040Z,31.72
2022-08-17T12:24:56.627Z,31.67
2022-08-17T12:28:04.656Z,31.60
2022-08-17T12:30:22.441Z,31.44
2022-08-17T12:32:51.002Z,31.33
2022-08-17T12:35:35.856Z,31.32
2022-08-17T12:38:22.290Z,31.21
2022-08-17T12:40:58.318Z,31.15
2022-08-17T12:43:31.247Z,31.13
2022-08-17T12:46:13.278Z,31.16
2022-08-17T12:48:59.932Z,31.16
2022-08-17T12:51:29.747Z,31.22
2022-08-17T12:53:59.020Z,31.31
2022-08-17T12:56:27.418Z,31.42
2022-08-17T12:58:56.744Z,31.50
2022-08-17T13:01:26.143Z,31.53
2022-08-17T13:04:00.852Z,31.76
2022-08-17T13:06:36.868Z,31.90
2022-08-17T13:09:40.051Z,32.01
2022-08-17T13:12:09.057Z,32.04
2022-08-17T13:14:37.041Z,32.10
2022-08-17T13:17:12.646Z,32.14
2022-08-17T13:19:50.401Z,32.14
2022-08-17T13:22:22.879Z,32.07
2022-08-17T13:25:05.384Z,32.07
2022-08-17T13:27:34.387Z,32.04
2022-08-17T13:30:11.997Z,32.08
2022-08-17T13:32:45.686Z,32.06
2022-08-17T13:35:39.807Z,32.06
2022-08-17T13:38:17.478Z,31.99
2022-08-17T13:40:52.346Z,32.00
2022-08-17T13:43:45.020Z,32.03
2022-08-17T13:46:21.172Z,32.07
2022-08-17T13:49:06.602Z,32.11
2022-08-17T13:51:54.874Z,32.15
2022-08-17T13:54:34.478Z,32.14
2022-08-17T13:57:22.755Z,32.19
2022-08-17T14:00:06.014Z,32.22
2022-08-17T14:02:36.646Z,32.19
2022-08-17T14:05:06.297Z,32.33
2022-08-17T14:07:40.370Z,32.34
2022-08-17T14:10:17.511Z,32.45
2022-08-17T14:12:53.919Z,32.42
2022-08-17T14:15:25.122Z,32.48
2022-08-17T14:18:13.029Z,32.42
2022-08-17T14:20:41.022Z,32.48
2022-08-17T14:23:09.323Z,32.50
2022-08-17T14:25:37.439Z,32.48
2022-08-17T14:28:07.221Z,32.44
2022-08-17T14:30:37.826Z,32.43
2022-08-17T14:33:06.069Z,32.43
2022-08-17T14:35:34.626Z,32.47
2022-08-17T14:38:02.766Z,32.46
2022-08-17T14:40:31.166Z,32.47
2022-08-17T14:42:59.778Z,32.39
2022-08-17T14:45:32.587Z,32.49
2022-08-17T14:48:07.945Z,32.49
2022-08-17T14:50:38.836Z,32.50
2022-08-17T14:53:11.349Z,32.54
2022-08-17T14:55:42.319Z,32.54
2022-08-17T14:58:11.170Z,32.53
2022-08-17T15:00:42.461Z,32.53
2022-08-17T15:03:11.765Z,32.55
2022-08-17T15:05:41.349Z,32.58
2022-08-17T15:08:11.022Z,32.63
2022-08-17T15:10:39.369Z,32.68
2022-08-17T15:13:24.531Z,32.76
2022-08-17T15:15:53.401Z,32.76
2022-08-17T15:18:21.630Z,32.80
2022-08-17T15:20:50.413Z,32.86
2022-08-17T15:23:22.697Z,32.93
2022-08-17T15:25:54.000Z,33.01
2022-08-17T15:28:25.415Z,33.06
2022-08-17T15:30:54.208Z,33.06
2022-08-17T15:33:29.459Z,33.19
2022-08-17T15:36:02.442Z,33.25
2022-08-17T15:38:34.105Z,33.32
2022-08-17T15:41:03.636Z,33.34
2022-08-17T15:43:32.688Z,33.39
2022-08-17T15:46:15.389Z,33.46
2022-08-17T15:48:47.727Z,33.38
2022-08-17T15:51:26.348Z,33.47
2022-08-17T15:53:58.611Z,33.49
2022-08-17T15:56:28.451Z,33.53
2022-08-17T15:58:56.567Z,33.45
2022-08-17T16:02:11.961Z,33.49
2022-08-17T16:04:30.401Z,33.48
2022-08-17T16:07:00.135Z,33.55
2022-08-17T16:09:28.963Z,33.53
2022-08-17T16:11:56.912Z,33.51
2022-08-17T16:14:30.275Z,33.50
2022-08-17T16:17:01.909Z,33.52
2022-08-17T16:19:30.485Z,33.57
2022-08-17T16:21:58.774Z,33.58
2022-08-17T16:24:27.105Z,33.57
2022-08-17T16:26:59.927Z,33.56
2022-08-17T16:29:28.395Z,33.56
2022-08-17T16:31:57.684Z,33.54
2022-08-17T16:34:26.144Z,33.51
2022-08-17T16:36:56.462Z,33.43
2022-08-17T16:39:28.106Z,33.39
2022-08-17T16:41:57.956Z,33.25
2022-08-17T16:44:31.808Z,33.31
2022-08-17T16:47:01.321Z,33.22
2022-08-17T16:49:37.481Z,33.14
2022-08-17T16:52:10.899Z,33.10
2022-08-17T16:54:44.886Z,33.06
2022-08-17T16:57:14.599Z,32.97
2022-08-17T16:59:51.194Z,32.96
2022-08-17T17:02:31.714Z,32.89
2022-08-17T17:05:33.545Z,32.78
2022-08-17T17:08:14.209Z,32.73
2022-08-17T17:10:51.552Z,32.62
2022-08-17T17:13:36.358Z,32.60
2022-08-17T17:16:29.072Z,32.49
2022-08-17T17:19:09.488Z,32.45
2022-08-17T17:22:16.960Z,32.35
2022-08-17T17:25:04.015Z,32.30
2022-08-17T17:28:35.636Z,32.18
2022-08-17T17:31:08.301Z,32.12
2022-08-17T17:33:51.041Z,32.11
2022-08-17T17:36:40.784Z,32.09
2022-08-17T17:39:49.904Z,32.01
2022-08-17T17:42:24.822Z,32.01
2022-08-17T17:45:06.250Z,31.98
2022-08-17T17:47:35.266Z,31.89
2022-08-17T17:50:11.841Z,31.91
2022-08-17T17:52:47.542Z,31.84
2022-08-17T17:55:42.329Z,31.80
2022-08-17T17:58:33.428Z,31.76
2022-08-17T18:01:39.261Z,31.72
2022-08-17T18:04:36.644Z,31.69
2022-08-17T18:07:20.152Z,31.68
2022-08-17T18:10:19.469Z,31.66
2022-08-17T18:13:20.682Z,31.56
2022-08-17T18:15:52.983Z,31.53
2022-08-17T18:18:40.285Z,31.46
2022-08-17T18:21:29.780Z,31.41
2022-08-17T18:24:03.090Z,31.36
2022-08-17T18:26:57.657Z,31.37
2022-08-17T18:29:30.523Z,31.30
2022-08-17T18:32:27.306Z,31.24
2022-08-17T18:35:08.785Z,31.19
2022-08-17T18:37:53.616Z,31.18
2022-08-17T18:40:36.288Z,31.11
2022-08-17T18:43:14.397Z,31.05
2022-08-17T18:45:56.394Z,30.96
2022-08-17T18:48:49.419Z,30.91
2022-08-17T18:51:40.596Z,30.87
2022-08-17T18:54:26.205Z,30.80
2022-08-17T18:57:02.029Z,30.75
2022-08-17T18:59:50.179Z,30.70
2022-08-17T19:02:36.090Z,30.65
2022-08-17T19:05:36.810Z,30.63
2022-08-17T19:08:35.129Z,30.46
2022-08-17T19:11:10.100Z,30.35
2022-08-17T19:14:17.301Z,30.29
2022-08-17T19:17:00.584Z,30.18
2022-08-17T19:19:36.650Z,30.11
2022-08-17T19:22:53.394Z,29.95
2022-08-17T19:25:34.304Z,29.94
2022-08-17T19:28:22.869Z,29.62
2022-08-17T19:31:00.488Z,29.74
2022-08-17T19:33:31.726Z,29.74
2022-08-17T19:36:13.275Z,29.74
2022-08-17T19:39:12.645Z,29.66
2022-08-17T19:41:48.294Z,29.56
2022-08-17T19:44:47.072Z,29.55
2022-08-17T19:47:55.405Z,29.45
2022-08-17T19:50:56.672Z,29.39
2022-08-17T19:54:05.467Z,29.34
2022-08-17T19:57:01.761Z,29.19
2022-08-17T19:59:55.674Z,29.22
2022-08-17T20:03:07.953Z,29.08
2022-08-17T20:06:15.068Z,29.04
2022-08-17T20:08:58.232Z,28.99
2022-08-17T20:11:53.838Z,28.90
2022-08-17T20:14:33.025Z,28.86
2022-08-17T20:17:03.410Z,28.85
2022-08-17T20:20:23.353Z,28.77
2022-08-17T20:23:04.141Z,28.72
2022-08-17T20:25:47.100Z,28.69
2022-08-17T20:28:38.972Z,28.62
2022-08-17T20:31:46.370Z,28.32
2022-08-17T20:34:31.009Z,28.46
2022-08-17T20:37:20.258Z,28.21
2022-08-17T20:39:52.829Z,28.39
2022-08-17T20:42:21.888Z,28.43
2022-08-17T20:44:57.847Z,28.34
2022-08-17T20:48:07.365Z,28.51
2022-08-17T20:50:50.800Z,28.40
2022-08-17T20:53:47.652Z,28.35
2022-08-17T20:56:43.588Z,28.27
2022-08-17T20:59:27.728Z,28.24
2022-08-17T21:02:18.801Z,28.22
2022-08-17T21:04:50.851Z,27.95
2022-08-17T21:07:42.720Z,28.13
2022-08-17T21:10:35.881Z,28.20
2022-08-17T21:13:15.631Z,28.25
2022-08-17T21:16:07.063Z,28.27
2022-08-17T21:19:16.941Z,28.25
2022-08-17T21:22:32.696Z,28.20
2022-08-17T21:25:49.054Z,28.20
2022-08-17T21:28:23.219Z,28.18
2022-08-17T21:31:09.142Z,28.22
2022-08-17T21:33:39.666Z,28.27
2022-08-17T21:36:13.377Z,28.29
2022-08-17T21:38:47.463Z,28.28
2022-08-17T21:41:31.030Z,28.22
2022-08-17T21:44:26.719Z,28.19
2022-08-17T21:47:43.602Z,28.13
2022-08-17T21:50:25.948Z,28.15
2022-08-17T21:53:02.981Z,28.09
2022-08-17T21:55:34.267Z,28.20
2022-08-17T21:58:14.362Z,28.00
2022-08-17T22:00:46.491Z,28.09
2022-08-17T22:03:28.753Z,27.94
2022-08-17T22:05:56.578Z,28.09
2022-08-17T22:08:26.978Z,28.22
2022-08-17T22:11:02.347Z,28.26
2022-08-17T22:13:30.671Z,28.16
2022-08-17T22:16:28.564Z,28.23
2022-08-17T22:18:59.503Z,28.25
2022-08-17T22:21:27.751Z,28.26
2022-08-17T22:24:04.478Z,28.25
2022-08-17T22:27:03.023Z,28.27
2022-08-17T22:29:59.518Z,28.23
2022-08-17T22:32:41.621Z,28.27
2022-08-17T22:35:32.541Z,28.28
2022-08-17T22:38:18.920Z,28.25
2022-08-17T22:41:16.636Z,28.24
2022-08-17T22:43:44.986Z,28.23
2022-08-17T22:46:15.346Z,28.24
2022-08-17T22:48:51.017Z,28.28
2022-08-17T22:51:24.020Z,28.31
2022-08-17T22:54:34.032Z,28.31
2022-08-17T22:57:23.468Z,28.24
2022-08-17T22:59:56.452Z,28.22
2022-08-17T23:02:34.258Z,28.22
2022-08-17T23:05:14.164Z,28.22
2022-08-17T23:07:46.116Z,28.18
2022-08-17T23:10:19.337Z,28.15
2022-08-17T23:12:48.582Z,28.12
2022-08-17T23:15:19.304Z,28.09
2022-08-17T23:17:49.452Z,28.00
2022-08-17T23:20:18.581Z,27.99
2022-08-17T23:22:52.040Z,27.93
2022-08-17T23:25:31.744Z,27.92
2022-08-17T23:28:03.364Z,27.85
2022-08-17T23:30:36.761Z,27.81
2022-08-17T23:33:10.412Z,27.78
2022-08-17T23:35:40.564Z,27.68
2022-08-17T23:38:13.712Z,27.71
2022-08-17T23:40:43.504Z,27.70
2022-08-17T23:43:24.371Z,27.72
2022-08-17T23:45:59.617Z,27.67
2022-08-17T23:48:36.159Z,27.61
2022-08-17T23:51:18.997Z,27.65
2022-08-17T23:53:53.943Z,27.52
2022-08-17T23:56:25.892Z,27.52
2022-08-17T23:58:55.839Z,27.50
